sensor_id;sensor_type;location;lat;lon;timestamp;temperature;humidity
64874;HTU21D;51367;45.204;38.576;2022-10-31T00:02:23;12.81;86.54
64874;HTU21D;51367;45.204;38.576;2022-10-31T00:04:49;12.81;86.54
64874;HTU21D;51367;45.204;38.576;2022-10-31T00:07:15;12.81;86.58
64874;HTU21D;51367;45.204;38.576;2022-10-31T00:09:41;12.82;86.68
64874;HTU21D;51367;45.204;38.576;2022-10-31T00:12:07;12.84;86.65
64874;HTU21D;51367;45.204;38.576;2022-10-31T00:25:54;12.81;86.51
64874;HTU21D;51367;45.204;38.576;2022-10-31T00:28:20;12.80;86.49
64874;HTU21D;51367;45.204;38.576;2022-10-31T00:30:46;12.79;86.53
64874;HTU21D;51367;45.204;38.576;2022-10-31T00:33:12;12.80;86.59
64874;HTU21D;51367;45.204;38.576;2022-10-31T00:43:23;12.79;86.61
64874;HTU21D;51367;45.204;38.576;2022-10-31T00:45:50;12.78;86.64
64874;HTU21D;51367;45.204;38.576;2022-10-31T01:03:27;12.80;86.55
64874;HTU21D;51367;45.204;38.576;2022-10-31T01:06:09;12.80;86.58
64874;HTU21D;51367;45.204;38.576;2022-10-31T01:27:31;12.76;86.52
64874;HTU21D;51367;45.204;38.576;2022-10-31T01:29:58;12.76;86.55
64874;HTU21D;51367;45.204;38.576;2022-10-31T01:44:03;12.72;86.83
64874;HTU21D;51367;45.204;38.576;2022-10-31T01:46:34;12.72;86.74
64874;HTU21D;51367;45.204;38.576;2022-10-31T01:49:04;12.74;86.80
64874;HTU21D;51367;45.204;38.576;2022-10-31T01:51:38;12.75;86.89
64874;HTU21D;51367;45.204;38.576;2022-10-31T01:54:12;12.76;86.86
64874;HTU21D;51367;45.204;38.576;2022-10-31T01:56:42;12.74;86.86
64874;HTU21D;51367;45.204;38.576;2022-10-31T01:59:12;12.75;86.87
64874;HTU21D;51367;45.204;38.576;2022-10-31T02:09:51;12.65;86.95
64874;HTU21D;51367;45.204;38.576;2022-10-31T02:12:19;12.61;86.90
64874;HTU21D;51367;45.204;38.576;2022-10-31T02:14:46;12.60;87.00
64874;HTU21D;51367;45.204;38.576;2022-10-31T02:17:13;12.60;87.02
64874;HTU21D;51367;45.204;38.576;2022-10-31T02:39:33;12.69;86.99
64874;HTU21D;51367;45.204;38.576;2022-10-31T02:50:01;12.72;86.99
64874;HTU21D;51367;45.204;38.576;2022-10-31T02:52:30;12.73;86.94
64874;HTU21D;51367;45.204;38.576;2022-10-31T02:58:13;12.74;86.99
64874;HTU21D;51367;45.204;38.576;2022-10-31T03:01:07;12.74;87.04
64874;HTU21D;51367;45.204;38.576;2022-10-31T03:06:44;12.76;87.09
64874;HTU21D;51367;45.204;38.576;2022-10-31T03:14:53;12.75;87.13
64874;HTU21D;51367;45.204;38.576;2022-10-31T03:17:36;12.72;87.15
64874;HTU21D;51367;45.204;38.576;2022-10-31T03:20:05;12.70;87.15
64874;HTU21D;51367;45.204;38.576;2022-10-31T03:22:33;12.66;87.15
64874;HTU21D;51367;45.204;38.576;2022-10-31T03:25:01;12.64;87.22
64874;HTU21D;51367;45.204;38.576;2022-10-31T03:27:32;12.63;87.25
64874;HTU21D;51367;45.204;38.576;2022-10-31T03:30:02;12.60;87.32
64874;HTU21D;51367;45.204;38.576;2022-10-31T03:32:41;12.59;87.33
64874;HTU21D;51367;45.204;38.576;2022-10-31T03:35:08;12.57;87.33
64874;HTU21D;51367;45.204;38.576;2022-10-31T03:37:37;12.55;87.35
64874;HTU21D;51367;45.204;38.576;2022-10-31T03:40:10;12.51;87.38
64874;HTU21D;51367;45.204;38.576;2022-10-31T03:42:41;12.49;87.41
64874;HTU21D;51367;45.204;38.576;2022-10-31T03:45:25;12.45;87.48
64874;HTU21D;51367;45.204;38.576;2022-10-31T03:47:53;12.43;87.44
64874;HTU21D;51367;45.204;38.576;2022-10-31T03:50:21;12.38;87.61
64874;HTU21D;51367;45.204;38.576;2022-10-31T03:52:56;12.34;87.51
64874;HTU21D;51367;45.204;38.576;2022-10-31T03:56:06;12.31;87.51
64874;HTU21D;51367;45.204;38.576;2022-10-31T03:58:24;12.30;87.52
64874;HTU21D;51367;45.204;38.576;2022-10-31T04:00:54;12.27;87.53
64874;HTU21D;51367;45.204;38.576;2022-10-31T04:03:33;12.26;87.56
64874;HTU21D;51367;45.204;38.576;2022-10-31T04:06:05;12.23;87.55
64874;HTU21D;51367;45.204;38.576;2022-10-31T04:08:57;12.23;87.58
64874;HTU21D;51367;45.204;38.576;2022-10-31T04:11:30;12.19;87.59
64874;HTU21D;51367;45.204;38.576;2022-10-31T04:14:17;12.19;87.60
64874;HTU21D;51367;45.204;38.576;2022-10-31T04:16:44;12.19;87.61
64874;HTU21D;51367;45.204;38.576;2022-10-31T04:19:12;12.18;87.59
64874;HTU21D;51367;45.204;38.576;2022-10-31T04:21:39;12.18;87.62
64874;HTU21D;51367;45.204;38.576;2022-10-31T04:24:05;12.19;87.66
64874;HTU21D;51367;45.204;38.576;2022-10-31T04:26:32;12.19;87.67
64874;HTU21D;51367;45.204;38.576;2022-10-31T04:28:58;12.21;87.70
64874;HTU21D;51367;45.204;38.576;2022-10-31T04:31:27;12.23;87.70
64874;HTU21D;51367;45.204;38.576;2022-10-31T04:33:55;12.26;87.69
64874;HTU21D;51367;45.204;38.576;2022-10-31T04:36:21;12.26;87.70
64874;HTU21D;51367;45.204;38.576;2022-10-31T04:38:47;12.28;87.70
64874;HTU21D;51367;45.204;38.576;2022-10-31T04:41:28;12.29;87.78
64874;HTU21D;51367;45.204;38.576;2022-10-31T04:44:02;12.30;87.75
64874;HTU21D;51367;45.204;38.576;2022-10-31T04:46:29;12.31;87.73
64874;HTU21D;51367;45.204;38.576;2022-10-31T04:48:57;12.32;87.73
64874;HTU21D;51367;45.204;38.576;2022-10-31T04:51:23;12.34;87.73
64874;HTU21D;51367;45.204;38.576;2022-10-31T04:53:50;12.35;87.73
64874;HTU21D;51367;45.204;38.576;2022-10-31T04:56:28;12.37;87.73
64874;HTU21D;51367;45.204;38.576;2022-10-31T04:58:58;12.38;87.73
64874;HTU21D;51367;45.204;38.576;2022-10-31T05:01:26;12.38;87.70
64874;HTU21D;51367;45.204;38.576;2022-10-31T05:03:54;12.41;87.73
64874;HTU21D;51367;45.204;38.576;2022-10-31T05:06:20;12.42;87.73
64874;HTU21D;51367;45.204;38.576;2022-10-31T05:08:46;12.44;87.74
64874;HTU21D;51367;45.204;38.576;2022-10-31T05:11:13;12.46;87.73
64874;HTU21D;51367;45.204;38.576;2022-10-31T05:13:42;12.49;87.75
64874;HTU21D;51367;45.204;38.576;2022-10-31T05:16:11;12.55;87.83
64874;HTU21D;51367;45.204;38.576;2022-10-31T05:18:49;12.62;87.89
64874;HTU21D;51367;45.204;38.576;2022-10-31T05:21:31;12.72;87.90
64874;HTU21D;51367;45.204;38.576;2022-10-31T05:24:00;12.85;87.86
64874;HTU21D;51367;45.204;38.576;2022-10-31T05:26:27;12.94;87.73
64874;HTU21D;51367;45.204;38.576;2022-10-31T05:28:54;13.10;87.67
64874;HTU21D;51367;45.204;38.576;2022-10-31T05:31:20;13.26;87.67
64874;HTU21D;51367;45.204;38.576;2022-10-31T05:33:48;13.45;87.48
64874;HTU21D;51367;45.204;38.576;2022-10-31T05:36:42;13.66;87.28
64874;HTU21D;51367;45.204;38.576;2022-10-31T05:39:23;13.83;87.03
64874;HTU21D;51367;45.204;38.576;2022-10-31T05:41:54;14.00;86.83
64874;HTU21D;51367;45.204;38.576;2022-10-31T05:44:24;14.11;86.68
64874;HTU21D;51367;45.204;38.576;2022-10-31T05:47:09;14.21;86.58
64874;HTU21D;51367;45.204;38.576;2022-10-31T05:49:55;14.27;86.56
64874;HTU21D;51367;45.204;38.576;2022-10-31T05:52:39;14.33;86.62
64874;HTU21D;51367;45.204;38.576;2022-10-31T05:55:29;14.41;86.84
64874;HTU21D;51367;45.204;38.576;2022-10-31T05:58:10;14.51;86.96
64874;HTU21D;51367;45.204;38.576;2022-10-31T06:00:38;14.63;87.03
64874;HTU21D;51367;45.204;38.576;2022-10-31T06:03:09;14.80;87.39
64874;HTU21D;51367;45.204;38.576;2022-10-31T06:05:51;15.16;87.95
64874;HTU21D;51367;45.204;38.576;2022-10-31T06:08:17;15.55;87.81
64874;HTU21D;51367;45.204;38.576;2022-10-31T06:10:44;15.95;87.51
64874;HTU21D;51367;45.204;38.576;2022-10-31T06:13:11;16.39;86.93
64874;HTU21D;51367;45.204;38.576;2022-10-31T06:15:43;16.67;85.96
64874;HTU21D;51367;45.204;38.576;2022-10-31T06:18:11;16.80;85.10
64874;HTU21D;51367;45.204;38.576;2022-10-31T06:20:46;16.82;84.71
64874;HTU21D;51367;45.204;38.576;2022-10-31T06:23:12;16.93;84.42
64874;HTU21D;51367;45.204;38.576;2022-10-31T06:25:40;17.20;84.61
64874;HTU21D;51367;45.204;38.576;2022-10-31T06:28:07;17.60;84.42
64874;HTU21D;51367;45.204;38.576;2022-10-31T06:31:05;18.18;83.78
64874;HTU21D;51367;45.204;38.576;2022-10-31T06:33:33;18.62;83.13
64874;HTU21D;51367;45.204;38.576;2022-10-31T06:36:01;19.01;82.33
64874;HTU21D;51367;45.204;38.576;2022-10-31T06:38:28;19.26;81.36
64874;HTU21D;51367;45.204;38.576;2022-10-31T06:40:55;19.46;80.89
64874;HTU21D;51367;45.204;38.576;2022-10-31T06:43:38;19.51;79.46
64874;HTU21D;51367;45.204;38.576;2022-10-31T06:46:17;19.54;79.56
64874;HTU21D;51367;45.204;38.576;2022-10-31T06:49:09;19.70;79.95
64874;HTU21D;51367;45.204;38.576;2022-10-31T06:51:49;19.79;78.83
64874;HTU21D;51367;45.204;38.576;2022-10-31T06:54:17;19.77;78.24
64874;HTU21D;51367;45.204;38.576;2022-10-31T06:56:46;19.63;76.89
64874;HTU21D;51367;45.204;38.576;2022-10-31T06:59:13;19.37;76.51
64874;HTU21D;51367;45.204;38.576;2022-10-31T07:02:09;18.95;76.35
64874;HTU21D;51367;45.204;38.576;2022-10-31T07:04:36;18.59;76.22
64874;HTU21D;51367;45.204;38.576;2022-10-31T07:07:03;18.24;76.15
64874;HTU21D;51367;45.204;38.576;2022-10-31T07:09:29;17.91;76.78
64874;HTU21D;51367;45.204;38.576;2022-10-31T07:12:00;17.62;77.05
64874;HTU21D;51367;45.204;38.576;2022-10-31T07:14:28;17.54;77.76
64874;HTU21D;51367;45.204;38.576;2022-10-31T07:16:54;17.72;78.11
64874;HTU21D;51367;45.204;38.576;2022-10-31T07:19:30;17.90;77.46
64874;HTU21D;51367;45.204;38.576;2022-10-31T07:21:57;18.09;77.65
64874;HTU21D;51367;45.204;38.576;2022-10-31T07:24:26;18.27;77.44
64874;HTU21D;51367;45.204;38.576;2022-10-31T07:26:52;18.37;76.59
64874;HTU21D;51367;45.204;38.576;2022-10-31T07:29:19;18.24;75.73
64874;HTU21D;51367;45.204;38.576;2022-10-31T07:31:46;18.11;75.64
64874;HTU21D;51367;45.204;38.576;2022-10-31T07:34:18;18.07;75.10
64874;HTU21D;51367;45.204;38.576;2022-10-31T07:37:03;17.92;74.92
64874;HTU21D;51367;45.204;38.576;2022-10-31T07:39:30;17.74;75.13
64874;HTU21D;51367;45.204;38.576;2022-10-31T07:41:58;17.64;75.42
64874;HTU21D;51367;45.204;38.576;2022-10-31T07:44:24;17.61;75.55
64874;HTU21D;51367;45.204;38.576;2022-10-31T07:47:28;17.56;75.42
64874;HTU21D;51367;45.204;38.576;2022-10-31T07:50:08;17.47;74.98
64874;HTU21D;51367;45.204;38.576;2022-10-31T07:53:00;17.39;74.96
64874;HTU21D;51367;45.204;38.576;2022-10-31T07:55:45;17.37;75.34
64874;HTU21D;51367;45.204;38.576;2022-10-31T07:58:14;17.43;75.41
64874;HTU21D;51367;45.204;38.576;2022-10-31T08:00:43;17.47;75.30
64874;HTU21D;51367;45.204;38.576;2022-10-31T08:03:17;17.47;75.12
64874;HTU21D;51367;45.204;38.576;2022-10-31T08:06:02;17.55;74.86
64874;HTU21D;51367;45.204;38.576;2022-10-31T08:08:48;17.55;74.64
64874;HTU21D;51367;45.204;38.576;2022-10-31T08:11:14;17.50;74.17
64874;HTU21D;51367;45.204;38.576;2022-10-31T08:13:42;17.33;73.76
64874;HTU21D;51367;45.204;38.576;2022-10-31T08:16:11;17.17;73.50
64874;HTU21D;51367;45.204;38.576;2022-10-31T08:18:46;17.00;73.86
64874;HTU21D;51367;45.204;38.576;2022-10-31T08:21:14;16.87;73.65
64874;HTU21D;51367;45.204;38.576;2022-10-31T08:23:41;16.72;73.74
64874;HTU21D;51367;45.204;38.576;2022-10-31T08:26:07;16.58;72.99
64874;HTU21D;51367;45.204;38.576;2022-10-31T08:28:33;16.43;73.18
64874;HTU21D;51367;45.204;38.576;2022-10-31T08:31:02;16.30;73.12
64874;HTU21D;51367;45.204;38.576;2022-10-31T08:33:39;16.19;73.32
64874;HTU21D;51367;45.204;38.576;2022-10-31T08:36:17;16.16;73.17
64874;HTU21D;51367;45.204;38.576;2022-10-31T08:39:12;16.24;73.40
64874;HTU21D;51367;45.204;38.576;2022-10-31T08:41:38;16.36;73.20
64874;HTU21D;51367;45.204;38.576;2022-10-31T08:44:09;16.48;72.56
64874;HTU21D;51367;45.204;38.576;2022-10-31T08:46:36;16.56;71.99
64874;HTU21D;51367;45.204;38.576;2022-10-31T08:49:02;16.59;71.53
64874;HTU21D;51367;45.204;38.576;2022-10-31T08:51:29;16.62;71.59
64874;HTU21D;51367;45.204;38.576;2022-10-31T08:53:55;16.65;71.71
64874;HTU21D;51367;45.204;38.576;2022-10-31T08:56:41;16.74;71.55
64874;HTU21D;51367;45.204;38.576;2022-10-31T08:59:22;16.84;71.30
64874;HTU21D;51367;45.204;38.576;2022-10-31T09:02:07;16.91;71.37
64874;HTU21D;51367;45.204;38.576;2022-10-31T09:04:34;16.99;71.32
64874;HTU21D;51367;45.204;38.576;2022-10-31T09:07:00;17.03;71.15
64874;HTU21D;51367;45.204;38.576;2022-10-31T09:09:27;17.08;70.97
64874;HTU21D;51367;45.204;38.576;2022-10-31T09:11:53;17.09;70.88
64874;HTU21D;51367;45.204;38.576;2022-10-31T09:14:37;17.10;70.39
64874;HTU21D;51367;45.204;38.576;2022-10-31T09:17:18;17.07;70.35
64874;HTU21D;51367;45.204;38.576;2022-10-31T09:20:03;17.09;70.29
64874;HTU21D;51367;45.204;38.576;2022-10-31T09:22:32;17.07;70.21
64874;HTU21D;51367;45.204;38.576;2022-10-31T09:24:58;17.05;70.08
64874;HTU21D;51367;45.204;38.576;2022-10-31T09:27:24;16.96;70.38
64874;HTU21D;51367;45.204;38.576;2022-10-31T09:29:52;16.91;70.33
64874;HTU21D;51367;45.204;38.576;2022-10-31T09:32:18;16.90;69.88
64874;HTU21D;51367;45.204;38.576;2022-10-31T09:34:45;16.92;69.95
64874;HTU21D;51367;45.204;38.576;2022-10-31T09:37:15;16.99;69.84
64874;HTU21D;51367;45.204;38.576;2022-10-31T09:39:41;16.99;69.42
64874;HTU21D;51367;45.204;38.576;2022-10-31T09:48:00;16.89;69.09
64874;HTU21D;51367;45.204;38.576;2022-10-31T09:50:36;16.90;68.85
64874;HTU21D;51367;45.204;38.576;2022-10-31T09:53:46;16.93;68.91
64874;HTU21D;51367;45.204;38.576;2022-10-31T09:56:21;17.02;68.72
64874;HTU21D;51367;45.204;38.576;2022-10-31T09:58:53;17.09;68.69
64874;HTU21D;51367;45.204;38.576;2022-10-31T10:01:47;17.20;68.48
64874;HTU21D;51367;45.204;38.576;2022-10-31T10:04:31;17.22;67.87
64874;HTU21D;51367;45.204;38.576;2022-10-31T10:09:42;17.28;67.97
64874;HTU21D;51367;45.204;38.576;2022-10-31T10:18:23;17.02;67.51
64874;HTU21D;51367;45.204;38.576;2022-10-31T10:27:39;16.86;67.44
64874;HTU21D;51367;45.204;38.576;2022-10-31T10:32:49;16.88;67.30
64874;HTU21D;51367;45.204;38.576;2022-10-31T10:35:20;16.95;67.36
64874;HTU21D;51367;45.204;38.576;2022-10-31T10:37:51;17.04;67.28
64874;HTU21D;51367;45.204;38.576;2022-10-31T10:40:21;17.14;66.83
64874;HTU21D;51367;45.204;38.576;2022-10-31T10:43:21;17.19;66.67
64874;HTU21D;51367;45.204;38.576;2022-10-31T10:45:57;17.19;66.81
64874;HTU21D;51367;45.204;38.576;2022-10-31T10:48:52;17.11;66.56
64874;HTU21D;51367;45.204;38.576;2022-10-31T10:51:51;16.94;66.71
64874;HTU21D;51367;45.204;38.576;2022-10-31T10:54:42;16.75;67.08
64874;HTU21D;51367;45.204;38.576;2022-10-31T10:59:54;16.63;67.99
64874;HTU21D;51367;45.204;38.576;2022-10-31T11:02:23;16.70;68.09
64874;HTU21D;51367;45.204;38.576;2022-10-31T11:04:55;16.80;68.26
64874;HTU21D;51367;45.204;38.576;2022-10-31T11:07:22;16.90;67.75
64874;HTU21D;51367;45.204;38.576;2022-10-31T11:09:49;16.89;67.55
64874;HTU21D;51367;45.204;38.576;2022-10-31T11:12:35;16.82;67.75
64874;HTU21D;51367;45.204;38.576;2022-10-31T11:15:07;16.74;67.75
64874;HTU21D;51367;45.204;38.576;2022-10-31T11:17:36;16.69;67.94
64874;HTU21D;51367;45.204;38.576;2022-10-31T11:22:48;16.51;68.29
64874;HTU21D;51367;45.204;38.576;2022-10-31T11:25:25;16.45;68.45
64874;HTU21D;51367;45.204;38.576;2022-10-31T11:28:04;16.36;68.70
64874;HTU21D;51367;45.204;38.576;2022-10-31T11:30:42;16.33;68.67
64874;HTU21D;51367;45.204;38.576;2022-10-31T11:33:20;16.22;68.79
64874;HTU21D;51367;45.204;38.576;2022-10-31T11:35:48;16.15;69.10
64874;HTU21D;51367;45.204;38.576;2022-10-31T11:38:20;16.11;69.33
64874;HTU21D;51367;45.204;38.576;2022-10-31T11:40:59;16.07;69.52
64874;HTU21D;51367;45.204;38.576;2022-10-31T11:43:26;16.05;69.59
64874;HTU21D;51367;45.204;38.576;2022-10-31T11:45:53;16.01;69.74
64874;HTU21D;51367;45.204;38.576;2022-10-31T11:48:23;15.98;69.87
64874;HTU21D;51367;45.204;38.576;2022-10-31T11:50:54;15.93;69.90
64874;HTU21D;51367;45.204;38.576;2022-10-31T11:53:35;15.83;69.97
64874;HTU21D;51367;45.204;38.576;2022-10-31T11:56:10;15.78;70.15
64874;HTU21D;51367;45.204;38.576;2022-10-31T11:58:38;15.73;70.19
64874;HTU21D;51367;45.204;38.576;2022-10-31T12:01:04;15.69;70.09
64874;HTU21D;51367;45.204;38.576;2022-10-31T12:03:58;15.70;70.41
64874;HTU21D;51367;45.204;38.576;2022-10-31T12:06:39;15.76;70.39
64874;HTU21D;51367;45.204;38.576;2022-10-31T12:09:23;15.83;70.27
64874;HTU21D;51367;45.204;38.576;2022-10-31T12:17:42;16.00;69.92
64874;HTU21D;51367;45.204;38.576;2022-10-31T12:22:52;15.99;69.35
64874;HTU21D;51367;45.204;38.576;2022-10-31T12:25:34;15.92;69.00
64874;HTU21D;51367;45.204;38.576;2022-10-31T12:36:10;15.99;68.80
64874;HTU21D;51367;45.204;38.576;2022-10-31T12:49:59;15.95;67.99
64874;HTU21D;51367;45.204;38.576;2022-10-31T12:59:13;15.68;68.44
64874;HTU21D;51367;45.204;38.576;2022-10-31T13:01:35;15.58;68.24
64874;HTU21D;51367;45.204;38.576;2022-10-31T13:04:14;15.47;68.50
64874;HTU21D;51367;45.204;38.576;2022-10-31T13:06:48;15.43;68.78
64874;HTU21D;51367;45.204;38.576;2022-10-31T13:09:30;15.39;69.07
64874;HTU21D;51367;45.204;38.576;2022-10-31T13:11:59;15.34;69.16
64874;HTU21D;51367;45.204;38.576;2022-10-31T13:14:33;15.27;69.37
64874;HTU21D;51367;45.204;38.576;2022-10-31T13:17:02;15.19;69.50
64874;HTU21D;51367;45.204;38.576;2022-10-31T13:19:41;15.10;69.58
64874;HTU21D;51367;45.204;38.576;2022-10-31T13:22:22;14.98;69.65
64874;HTU21D;51367;45.204;38.576;2022-10-31T13:24:52;14.87;69.89
64874;HTU21D;51367;45.204;38.576;2022-10-31T13:27:23;14.77;70.00
64874;HTU21D;51367;45.204;38.576;2022-10-31T13:30:00;14.67;70.21
64874;HTU21D;51367;45.204;38.576;2022-10-31T13:32:36;14.59;70.45
64874;HTU21D;51367;45.204;38.576;2022-10-31T13:35:04;14.52;70.64
64874;HTU21D;51367;45.204;38.576;2022-10-31T13:37:46;14.45;70.80
64874;HTU21D;51367;45.204;38.576;2022-10-31T13:45:59;14.19;71.10
64874;HTU21D;51367;45.204;38.576;2022-10-31T13:48:36;14.09;71.21
64874;HTU21D;51367;45.204;38.576;2022-10-31T13:51:09;13.99;71.38
64874;HTU21D;51367;45.204;38.576;2022-10-31T13:54:06;13.93;71.58
64874;HTU21D;51367;45.204;38.576;2022-10-31T13:56:35;13.84;71.96
64874;HTU21D;51367;45.204;38.576;2022-10-31T14:01:27;13.70;72.21
64874;HTU21D;51367;45.204;38.576;2022-10-31T14:06:44;13.56;72.43
64874;HTU21D;51367;45.204;38.576;2022-10-31T14:09:38;13.48;72.60
64874;HTU21D;51367;45.204;38.576;2022-10-31T14:12:22;13.43;72.83
64874;HTU21D;51367;45.204;38.576;2022-10-31T14:14:52;13.34;72.96
64874;HTU21D;51367;45.204;38.576;2022-10-31T14:17:23;13.27;73.09
64874;HTU21D;51367;45.204;38.576;2022-10-31T14:20:19;13.22;73.25
64874;HTU21D;51367;45.204;38.576;2022-10-31T14:22:45;13.17;73.44
64874;HTU21D;51367;45.204;38.576;2022-10-31T14:25:36;13.11;73.61
64874;HTU21D;51367;45.204;38.576;2022-10-31T14:28:21;13.04;73.66
64874;HTU21D;51367;45.204;38.576;2022-10-31T14:30:57;13.00;73.74
64874;HTU21D;51367;45.204;38.576;2022-10-31T14:33:28;12.94;73.79
64874;HTU21D;51367;45.204;38.576;2022-10-31T14:36:07;12.90;73.82
64874;HTU21D;51367;45.204;38.576;2022-10-31T14:38:56;12.84;73.88
64874;HTU21D;51367;45.204;38.576;2022-10-31T14:44:03;12.72;74.00
64874;HTU21D;51367;45.204;38.576;2022-10-31T14:52:14;12.45;75.34
64874;HTU21D;51367;45.204;38.576;2022-10-31T14:54:47;12.33;75.05
64874;HTU21D;51367;45.204;38.576;2022-10-31T14:57:34;12.22;75.11
64874;HTU21D;51367;45.204;38.576;2022-10-31T15:00:05;12.14;75.19
64874;HTU21D;51367;45.204;38.576;2022-10-31T15:02:46;12.08;75.37
64874;HTU21D;51367;45.204;38.576;2022-10-31T15:05:15;12.04;75.45
64874;HTU21D;51367;45.204;38.576;2022-10-31T15:07:50;11.99;75.65
64874;HTU21D;51367;45.204;38.576;2022-10-31T15:10:29;11.96;75.54
64874;HTU21D;51367;45.204;38.576;2022-10-31T15:13:20;11.92;75.56
64874;HTU21D;51367;45.204;38.576;2022-10-31T15:15:48;11.90;75.61
64874;HTU21D;51367;45.204;38.576;2022-10-31T15:18:33;11.86;75.58
64874;HTU21D;51367;45.204;38.576;2022-10-31T15:20:59;11.85;75.57
64874;HTU21D;51367;45.204;38.576;2022-10-31T15:23:28;11.83;75.58
64874;HTU21D;51367;45.204;38.576;2022-10-31T15:26:01;11.81;75.58
64874;HTU21D;51367;45.204;38.576;2022-10-31T15:28:28;11.77;75.56
64874;HTU21D;51367;45.204;38.576;2022-10-31T15:30:57;11.77;75.57
64874;HTU21D;51367;45.204;38.576;2022-10-31T15:33:26;11.76;75.57
64874;HTU21D;51367;45.204;38.576;2022-10-31T15:35:57;11.74;75.63
64874;HTU21D;51367;45.204;38.576;2022-10-31T15:38:24;11.69;75.63
64874;HTU21D;51367;45.204;38.576;2022-10-31T15:40:56;11.67;75.67
64874;HTU21D;51367;45.204;38.576;2022-10-31T15:43:23;11.63;75.70
64874;HTU21D;51367;45.204;38.576;2022-10-31T15:45:50;11.61;75.81
64874;HTU21D;51367;45.204;38.576;2022-10-31T15:48:22;11.58;75.78
64874;HTU21D;51367;45.204;38.576;2022-10-31T15:50:56;11.55;75.86
64874;HTU21D;51367;45.204;38.576;2022-10-31T15:56:00;11.48;75.94
64874;HTU21D;51367;45.204;38.576;2022-10-31T15:58:28;11.43;75.97
64874;HTU21D;51367;45.204;38.576;2022-10-31T16:01:02;11.41;76.00
64874;HTU21D;51367;45.204;38.576;2022-10-31T16:03:30;11.33;76.05
64874;HTU21D;51367;45.204;38.576;2022-10-31T16:05:59;11.30;76.08
64874;HTU21D;51367;45.204;38.576;2022-10-31T16:10:55;11.23;76.14
64874;HTU21D;51367;45.204;38.576;2022-10-31T16:13:33;11.19;76.20
64874;HTU21D;51367;45.204;38.576;2022-10-31T16:16:03;11.15;76.20
64874;HTU21D;51367;45.204;38.576;2022-10-31T16:18:36;11.11;76.23
64874;HTU21D;51367;45.204;38.576;2022-10-31T16:21:03;11.05;76.28
64874;HTU21D;51367;45.204;38.576;2022-10-31T16:23:30;11.02;76.34
64874;HTU21D;51367;45.204;38.576;2022-10-31T16:25:56;10.97;76.45
64874;HTU21D;51367;45.204;38.576;2022-10-31T16:28:24;10.96;76.54
64874;HTU21D;51367;45.204;38.576;2022-10-31T16:30:55;10.96;76.64
64874;HTU21D;51367;45.204;38.576;2022-10-31T16:35:47;11.00;76.66
64874;HTU21D;51367;45.204;38.576;2022-10-31T16:38:14;11.02;76.61
64874;HTU21D;51367;45.204;38.576;2022-10-31T16:40:40;11.03;76.53
64874;HTU21D;51367;45.204;38.576;2022-10-31T16:43:14;11.03;76.44
64874;HTU21D;51367;45.204;38.576;2022-10-31T16:45:46;11.02;76.23
64874;HTU21D;51367;45.204;38.576;2022-10-31T16:48:20;11.00;76.24
64874;HTU21D;51367;45.204;38.576;2022-10-31T16:50:49;10.98;76.23
64874;HTU21D;51367;45.204;38.576;2022-10-31T16:53:16;10.97;76.08
64874;HTU21D;51367;45.204;38.576;2022-10-31T16:55:57;10.93;75.86
64874;HTU21D;51367;45.204;38.576;2022-10-31T16:58:26;10.88;75.58
64874;HTU21D;51367;45.204;38.576;2022-10-31T17:00:53;10.79;75.50
64874;HTU21D;51367;45.204;38.576;2022-10-31T17:03:19;10.68;75.53
64874;HTU21D;51367;45.204;38.576;2022-10-31T17:05:45;10.62;75.72
64874;HTU21D;51367;45.204;38.576;2022-10-31T17:08:11;10.54;75.70
64874;HTU21D;51367;45.204;38.576;2022-10-31T17:10:39;10.45;75.85
64874;HTU21D;51367;45.204;38.576;2022-10-31T17:13:08;10.40;75.74
64874;HTU21D;51367;45.204;38.576;2022-10-31T17:15:43;10.35;75.79
64874;HTU21D;51367;45.204;38.576;2022-10-31T17:18:14;10.28;75.74
64874;HTU21D;51367;45.204;38.576;2022-10-31T17:20:41;10.23;75.80
64874;HTU21D;51367;45.204;38.576;2022-10-31T17:23:12;10.20;75.38
64874;HTU21D;51367;45.204;38.576;2022-10-31T17:25:38;10.12;74.19
64874;HTU21D;51367;45.204;38.576;2022-10-31T17:28:06;10.04;74.35
64874;HTU21D;51367;45.204;38.576;2022-10-31T17:30:37;9.88;74.06
64874;HTU21D;51367;45.204;38.576;2022-10-31T17:33:04;9.67;73.64
64874;HTU21D;51367;45.204;38.576;2022-10-31T17:35:31;9.52;74.36
64874;HTU21D;51367;45.204;38.576;2022-10-31T17:37:57;9.40;74.67
64874;HTU21D;51367;45.204;38.576;2022-10-31T17:40:23;9.27;74.83
64874;HTU21D;51367;45.204;38.576;2022-10-31T17:42:53;9.15;74.96
64874;HTU21D;51367;45.204;38.576;2022-10-31T17:45:21;9.01;75.29
64874;HTU21D;51367;45.204;38.576;2022-10-31T17:47:51;8.87;75.52
64874;HTU21D;51367;45.204;38.576;2022-10-31T17:50:21;8.73;75.71
64874;HTU21D;51367;45.204;38.576;2022-10-31T17:52:47;8.61;75.86
64874;HTU21D;51367;45.204;38.576;2022-10-31T17:55:14;8.49;76.12
64874;HTU21D;51367;45.204;38.576;2022-10-31T17:57:41;8.39;76.25
64874;HTU21D;51367;45.204;38.576;2022-10-31T18:00:11;8.31;76.37
64874;HTU21D;51367;45.204;38.576;2022-10-31T18:02:38;8.23;76.45
64874;HTU21D;51367;45.204;38.576;2022-10-31T18:05:05;8.17;76.50
64874;HTU21D;51367;45.204;38.576;2022-10-31T18:07:32;8.12;76.60
64874;HTU21D;51367;45.204;38.576;2022-10-31T18:09:59;8.06;76.66
64874;HTU21D;51367;45.204;38.576;2022-10-31T18:12:26;7.99;76.79
64874;HTU21D;51367;45.204;38.576;2022-10-31T18:14:53;7.92;76.75
64874;HTU21D;51367;45.204;38.576;2022-10-31T18:17:20;7.86;76.83
64874;HTU21D;51367;45.204;38.576;2022-10-31T18:19:46;7.81;76.82
64874;HTU21D;51367;45.204;38.576;2022-10-31T18:22:13;7.76;76.87
64874;HTU21D;51367;45.204;38.576;2022-10-31T18:24:39;7.71;76.88
64874;HTU21D;51367;45.204;38.576;2022-10-31T18:27:05;7.67;76.84
64874;HTU21D;51367;45.204;38.576;2022-10-31T18:29:33;7.61;76.87
64874;HTU21D;51367;45.204;38.576;2022-10-31T18:32:00;7.57;76.90
64874;HTU21D;51367;45.204;38.576;2022-10-31T18:34:26;7.49;76.86
64874;HTU21D;51367;45.204;38.576;2022-10-31T18:36:53;7.42;76.81
64874;HTU21D;51367;45.204;38.576;2022-10-31T18:39:19;7.34;76.84
64874;HTU21D;51367;45.204;38.576;2022-10-31T18:41:46;7.30;76.88
64874;HTU21D;51367;45.204;38.576;2022-10-31T18:44:13;7.22;76.98
64874;HTU21D;51367;45.204;38.576;2022-10-31T18:46:39;7.15;77.07
64874;HTU21D;51367;45.204;38.576;2022-10-31T18:49:05;7.08;77.18
64874;HTU21D;51367;45.204;38.576;2022-10-31T18:51:31;6.99;77.23
64874;HTU21D;51367;45.204;38.576;2022-10-31T18:53:59;6.91;77.31
64874;HTU21D;51367;45.204;38.576;2022-10-31T18:56:26;6.84;77.27
64874;HTU21D;51367;45.204;38.576;2022-10-31T18:58:53;6.78;77.23